Time,TemperatureF,DewpointF,PressureIn,WindDirection,WindDirectionDegrees,WindSpeedMPH,WindSpeedGustMPH,Humidity,HourlyPrecipIn,Conditions,Clouds,dailyrainin,SoftwareType,DateUTC
2013-08-04 00:00:00,62.9,52.2,29.94,NW,311,0.0,0.0,68,0.00,,CLR,0.00,VWS V14.01,2013-08-04 07:00:00,
2013-08-04 00:05:00,62.8,51.7,29.94,NW,316,0.0,0.0,67,0.00,,CLR,0.00,VWS V14.01,2013-08-04 07:05:00,
2013-08-04 00:11:00,62.8,52.1,29.94,NNW,330,0.0,0.0,68,0.00,,CLR,0.00,VWS V14.01,2013-08-04 07:11:00,
2013-08-04 00:16:00,62.8,52.1,29.94,NNW,330,0.0,0.0,68,0.00,,CLR,0.00,VWS V14.01,2013-08-04 07:16:00,
2013-08-04 00:21:00,62.8,52.1,29.94,NNW,330,0.0,0.0,68,0.00,,CLR,0.00,VWS V14.01,2013-08-04 07:21:00,
2013-08-04 00:26:00,62.8,52.1,29.94,WNW,299,2.2,3.6,68,0.00,,CLR,0.00,VWS V14.01,2013-08-04 07:26:00,
2013-08-04 00:32:00,62.8,52.5,29.94,WNW,287,0.0,0.0,69,0.00,,CLR,0.00,VWS V14.01,2013-08-04 07:32:00,
2013-08-04 00:37:00,62.6,52.3,29.91,WNW,287,0.0,0.0,69,0.00,,BKN016,0.00,VWS V14.01,2013-08-04 07:37:00,
2013-08-04 00:43:00,62.6,52.3,29.91,WNW,287,0.0,0.0,69,0.00,,BKN016,0.00,VWS V14.01,2013-08-04 07:43:00,
2013-08-04 00:49:00,62.6,52.3,29.91,WNW,287,0.0,0.0,69,0.00,,BKN016,0.00,VWS V14.01,2013-08-04 07:49:00,
2013-08-04 00:55:00,62.6,52.3,29.91,West,265,0.0,0.0,69,0.00,,BKN016,0.00,VWS V14.01,2013-08-04 07:55:00,
2013-08-04 01:00:00,62.6,52.3,29.91,West,268,0.0,0.0,69,0.00,,BKN016,0.00,VWS V14.01,2013-08-04 08:00:00,
2013-08-04 01:06:00,62.6,52.3,29.91,West,268,0.0,0.0,69,0.00,,BKN016,0.00,VWS V14.01,2013-08-04 08:06:00,
2013-08-04 01:10:00,62.8,52.8,29.91,West,264,3.6,3.6,70,0.00,,BKN016,0.00,VWS V14.01,2013-08-04 08:10:00,
2013-08-04 01:16:00,62.9,53.0,29.91,West,262,2.7,2.7,70,0.00,,BKN016,0.00,VWS V14.01,2013-08-04 08:16:00,
2013-08-04 01:20:00,63.1,53.2,29.94,West,262,0.0,2.7,70,0.00,,BKN016,0.00,VWS V14.01,2013-08-04 08:20:00,
2013-08-04 01:26:00,63.1,52.8,29.94,WSW,248,0.0,0.0,69,0.00,,BKN016,0.00,VWS V14.01,2013-08-04 08:26:00,
2013-08-04 01:31:00,63.1,52.8,29.94,WNW,295,0.0,0.0,69,0.00,,BKN016,0.00,VWS V14.01,2013-08-04 08:31:00,
2013-08-04 01:37:00,63.3,53.0,29.94,WNW,298,3.1,3.1,69,0.00,,OVC014,0.00,VWS V14.01,2013-08-04 08:37:00,
2013-08-04 01:42:00,63.3,52.6,29.94,West,262,2.7,3.6,68,0.00,,OVC014,0.00,VWS V14.01,2013-08-04 08:42:00,
2013-08-04 01:48:00,63.3,52.6,29.94,West,262,0.0,0.0,68,0.00,,OVC014,0.00,VWS V14.01,2013-08-04 08:48:00,
2013-08-04 01:53:00,63.5,52.7,29.94,West,262,0.0,0.0,68,0.00,,OVC014,0.00,VWS V14.01,2013-08-04 08:53:00,
2013-08-04 01:59:00,63.5,52.7,29.94,West,262,0.0,0.0,68,0.00,,OVC014,0.00,VWS V14.01,2013-08-04 08:59:00,
2013-08-04 02:05:00,63.5,52.7,29.94,West,262,0.0,0.0,68,0.00,,OVC014,0.00,VWS V14.01,2013-08-04 09:05:00,
2013-08-04 02:09:00,63.5,52.7,29.94,West,262,0.0,0.0,68,0.00,,OVC014,0.00,VWS V14.01,2013-08-04 09:09:00,
2013-08-04 02:16:00,63.7,52.9,29.94,West,262,0.0,0.0,68,0.00,,OVC014,0.00,VWS V14.01,2013-08-04 09:16:00,
2013-08-04 02:21:00,63.7,52.9,29.91,West,262,0.0,0.0,68,0.00,,OVC014,0.00,VWS V14.01,2013-08-04 09:21:00,
2013-08-04 02:27:00,63.7,52.9,29.91,West,262,0.0,0.0,68,0.00,,OVC014,0.00,VWS V14.01,2013-08-04 09:27:00,
2013-08-04 02:31:00,63.7,52.9,29.91,West,262,0.0,0.0,68,0.00,,OVC014,0.00,VWS V14.01,2013-08-04 09:31:00,
2013-08-04 02:37:00,63.7,52.9,29.91,West,262,0.0,0.0,68,0.00,,OVC012,0.00,VWS V14.01,2013-08-04 09:37:00,
2013-08-04 02:42:00,63.7,52.9,29.91,NW,313,0.0,0.0,68,0.00,,OVC012,0.00,VWS V14.01,2013-08-04 09:42:00,
2013-08-04 02:48:00,63.7,52.5,29.91,NNW,328,0.0,3.6,67,0.00,,OVC012,0.00,VWS V14.01,2013-08-04 09:48:00,
2013-08-04 02:53:00,63.7,52.5,29.91,NW,304,0.0,0.0,67,0.00,,OVC012,0.00,VWS V14.01,2013-08-04 09:53:00,
2013-08-04 02:58:00,63.7,52.5,29.91,NNW,331,3.1,4.0,67,0.00,,OVC012,0.00,VWS V14.01,2013-08-04 09:58:00,
2013-08-04 03:05:00,63.7,52.5,29.91,NNW,348,0.0,0.0,67,0.00,,OVC012,0.00,VWS V14.01,2013-08-04 10:05:00,
2013-08-04 03:10:00,63.7,52.5,29.91,WNW,300,0.0,2.7,67,0.00,,OVC012,0.00,VWS V14.01,2013-08-04 10:10:00,
2013-08-04 03:16:00,63.7,52.5,29.91,North,353,0.0,2.7,67,0.00,,OVC012,0.00,VWS V14.01,2013-08-04 10:16:00,
2013-08-04 03:21:00,63.7,52.5,29.91,NNE,26,0.0,0.0,67,0.00,,OVC012,0.00,VWS V14.01,2013-08-04 10:21:00,
2013-08-04 03:27:00,63.7,52.5,29.91,North,2,0.0,0.0,67,0.00,,OVC012,0.00,VWS V14.01,2013-08-04 10:27:00,
2013-08-04 03:32:00,63.7,52.5,29.91,West,260,0.0,0.0,67,0.00,,OVC012,0.00,VWS V14.01,2013-08-04 10:32:00,
2013-08-04 03:39:00,63.7,52.5,29.91,West,260,0.0,0.0,67,0.00,,OVC012,0.00,VWS V14.01,2013-08-04 10:39:00,
2013-08-04 03:44:00,63.7,52.5,29.91,South,171,0.0,0.0,67,0.00,,OVC012,0.00,VWS V14.01,2013-08-04 10:44:00,
2013-08-04 03:49:00,63.7,52.5,29.91,SE,130,2.2,2.7,67,0.00,,OVC012,0.00,VWS V14.01,2013-08-04 10:49:00,
2013-08-04 03:54:00,63.7,52.5,29.91,SE,130,0.0,0.0,67,0.00,,OVC012,0.00,VWS V14.01,2013-08-04 10:54:00,
2013-08-04 04:00:00,63.7,52.5,29.91,SE,130,2.2,2.7,67,0.00,,OVC012,0.00,VWS V14.01,2013-08-04 11:00:00,
2013-08-04 04:05:00,63.7,52.5,29.91,SE,130,0.0,0.0,67,0.00,,OVC012,0.00,VWS V14.01,2013-08-04 11:05:00,
2013-08-04 04:10:00,63.7,52.5,29.91,North,0,0.0,2.7,67,0.00,,OVC012,0.00,VWS V14.01,2013-08-04 11:10:00,
2013-08-04 04:16:00,63.7,52.5,29.91,North,353,4.0,4.9,67,0.00,,OVC012,0.00,VWS V14.01,2013-08-04 11:16:00,
2013-08-04 04:22:00,63.7,52.5,29.91,North,0,2.2,3.6,67,0.00,,OVC012,0.00,VWS V14.01,2013-08-04 11:22:00,
2013-08-04 04:28:00,63.7,52.5,29.91,NNW,344,0.0,0.0,67,0.00,,OVC012,0.00,VWS V14.01,2013-08-04 11:28:00,
2013-08-04 04:33:00,63.7,52.5,29.91,NNW,344,0.0,0.0,67,0.00,,OVC012,0.00,VWS V14.01,2013-08-04 11:33:00,
2013-08-04 04:39:00,63.7,52.5,29.91,NW,325,0.0,0.0,67,0.00,,OVC012,0.00,VWS V14.01,2013-08-04 11:39:00,
2013-08-04 04:43:00,63.7,52.5,29.91,WNW,299,2.2,2.7,67,0.00,,OVC012,0.00,VWS V14.01,2013-08-04 11:43:00,
2013-08-04 04:50:00,63.7,52.5,29.91,WNW,303,0.0,0.0,67,0.00,,OVC012,0.00,VWS V14.01,2013-08-04 11:50:00,
2013-08-04 04:56:00,63.7,52.5,29.91,NW,307,0.0,0.0,67,0.00,,OVC012,0.00,VWS V14.01,2013-08-04 11:56:00,
2013-08-04 05:01:00,63.8,52.7,29.91,West,281,0.0,0.0,67,0.00,,OVC012,0.00,VWS V14.01,2013-08-04 12:01:00,
2013-08-04 05:06:00,63.8,52.7,29.91,WNW,295,0.0,0.0,67,0.00,,OVC012,0.00,VWS V14.01,2013-08-04 12:06:00,
2013-08-04 05:12:00,63.8,52.7,29.91,WNW,303,0.0,3.1,67,0.00,,OVC012,0.00,VWS V14.01,2013-08-04 12:12:00,
2013-08-04 05:18:00,63.7,52.5,29.91,WNW,298,0.0,0.0,67,0.00,,OVC012,0.00,VWS V14.01,2013-08-04 12:18:00,
2013-08-04 05:23:00,63.8,52.7,29.91,NNE,20,0.0,0.0,67,0.00,,OVC012,0.00,VWS V14.01,2013-08-04 12:23:00,
2013-08-04 05:29:00,63.7,52.5,29.91,NW,319,0.0,0.0,67,0.00,,OVC012,0.00,VWS V14.01,2013-08-04 12:29:00,
2013-08-04 05:34:00,63.7,52.5,29.91,North,353,2.7,2.7,67,0.00,,OVC012,0.00,VWS V14.01,2013-08-04 12:34:00,
2013-08-04 05:39:00,63.8,52.7,29.91,NNW,334,0.0,2.7,67,0.00,,OVC012,0.00,VWS V14.01,2013-08-04 12:39:00,
2013-08-04 05:44:00,63.8,52.7,29.91,NNW,338,2.7,2.7,67,0.00,,OVC012,0.00,VWS V14.01,2013-08-04 12:44:00,
2013-08-04 05:50:00,63.8,52.7,29.94,NNW,337,0.0,2.2,67,0.00,,OVC012,0.00,VWS V14.01,2013-08-04 12:50:00,
2013-08-04 05:56:00,63.8,52.7,29.94,North,353,2.2,2.7,67,0.00,,OVC012,0.00,VWS V14.01,2013-08-04 12:56:00,
2013-08-04 06:01:00,63.8,52.7,29.94,North,353,0.0,0.0,67,0.00,,OVC012,0.00,VWS V14.01,2013-08-04 13:01:00,
2013-08-04 06:07:00,63.8,52.7,29.94,NW,312,0.0,0.0,67,0.00,,OVC012,0.00,VWS V14.01,2013-08-04 13:07:00,
2013-08-04 06:12:00,63.8,52.7,29.94,WNW,303,0.0,0.0,67,0.00,,OVC012,0.00,VWS V14.01,2013-08-04 13:12:00,
2013-08-04 06:18:00,63.8,52.7,29.94,WNW,294,0.0,0.0,67,0.00,,OVC012,0.00,VWS V14.01,2013-08-04 13:18:00,
2013-08-04 06:24:00,63.8,52.7,29.94,West,277,3.6,3.6,67,0.00,,OVC012,0.00,VWS V14.01,2013-08-04 13:24:00,
2013-08-04 06:29:00,63.8,52.7,29.94,NNW,346,2.7,2.7,67,0.00,,OVC012,0.00,VWS V14.01,2013-08-04 13:29:00,
2013-08-04 06:35:00,63.8,52.7,29.94,NW,307,0.0,2.7,67,0.00,,OVC012,0.00,VWS V14.01,2013-08-04 13:35:00,
2013-08-04 06:40:00,63.8,52.7,29.94,NNW,340,2.2,4.0,67,0.00,,OVC012,0.00,VWS V14.01,2013-08-04 13:40:00,
2013-08-04 06:47:00,63.8,52.7,29.94,NNW,336,0.0,0.0,67,0.00,,OVC012,0.00,VWS V14.01,2013-08-04 13:47:00,
2013-08-04 06:52:00,63.8,52.7,29.94,NNW,336,0.0,0.0,67,0.00,,OVC012,0.00,VWS V14.01,2013-08-04 13:52:00,
2013-08-04 06:57:00,64.0,52.9,29.94,NNW,336,0.0,0.0,67,0.00,,OVC012,0.00,VWS V14.01,2013-08-04 13:57:00,
2013-08-04 07:03:00,64.0,52.9,29.94,WSW,255,0.0,3.6,67,0.00,,OVC012,0.00,VWS V14.01,2013-08-04 14:03:00,
2013-08-04 07:08:00,64.2,53.0,29.94,WSW,243,3.1,3.1,67,0.00,,OVC012,0.00,VWS V14.01,2013-08-04 14:08:00,
2013-08-04 07:14:00,64.2,52.6,29.94,West,277,0.0,2.7,66,0.00,,OVC012,0.00,VWS V14.01,2013-08-04 14:14:00,
2013-08-04 07:19:00,64.2,52.6,29.94,WNW,294,2.7,3.1,66,0.00,,OVC012,0.00,VWS V14.01,2013-08-04 14:19:00,
2013-08-04 07:25:00,64.2,52.6,29.94,WSW,251,3.6,3.6,66,0.00,,OVC012,0.00,VWS V14.01,2013-08-04 14:25:00,
2013-08-04 07:30:00,64.2,52.6,29.94,SSW,202,3.1,3.1,66,0.00,,OVC012,0.00,VWS V14.01,2013-08-04 14:30:00,
2013-08-04 07:36:00,64.4,52.8,29.94,WSW,242,0.0,2.7,66,0.00,,OVC012,0.00,VWS V14.01,2013-08-04 14:36:00,
2013-08-04 07:41:00,64.6,53.0,29.94,SSW,194,0.0,0.0,66,0.00,,OVC012,0.00,VWS V14.01,2013-08-04 14:41:00,
2013-08-04 07:47:00,64.6,52.5,29.94,SW,219,0.0,4.0,65,0.00,,OVC012,0.00,VWS V14.01,2013-08-04 14:47:00,
2013-08-04 07:51:00,64.7,52.7,29.94,SW,219,0.0,0.0,65,0.00,,OVC012,0.00,VWS V14.01,2013-08-04 14:51:00,
2013-08-04 07:57:00,64.9,52.9,29.94,SW,219,0.0,0.0,65,0.00,,OVC012,0.00,VWS V14.01,2013-08-04 14:57:00,
2013-08-04 08:03:00,65.1,52.6,29.94,WNW,295,0.0,2.2,64,0.00,,OVC012,0.00,VWS V14.01,2013-08-04 15:03:00,
2013-08-04 08:08:00,65.3,52.4,29.94,WSW,241,2.7,4.0,63,0.00,,OVC012,0.00,VWS V14.01,2013-08-04 15:08:00,
2013-08-04 08:14:00,65.3,51.9,29.94,SSW,200,0.0,2.7,62,0.00,,OVC012,0.00,VWS V14.01,2013-08-04 15:14:00,
2013-08-04 08:20:00,65.3,51.5,29.97,SW,231,3.6,3.6,61,0.00,,OVC012,0.00,VWS V14.01,2013-08-04 15:20:00,
2013-08-04 08:25:00,65.5,51.7,29.97,WSW,243,0.0,0.0,61,0.00,,OVC012,0.00,VWS V14.01,2013-08-04 15:25:00,
2013-08-04 08:31:00,65.6,51.4,29.97,SE,141,0.0,3.1,60,0.00,,OVC012,0.00,VWS V14.01,2013-08-04 15:31:00,
2013-08-04 08:36:00,65.8,51.1,29.97,East,84,3.6,3.6,59,0.00,,,0.00,VWS V14.01,2013-08-04 15:36:00,
2013-08-04 08:41:00,65.8,50.2,29.97,East,93,0.0,3.6,57,0.00,,,0.00,VWS V14.01,2013-08-04 15:41:00,
2013-08-04 08:47:00,66.0,50.8,29.97,SSE,165,0.0,0.0,58,0.00,,,0.00,VWS V14.01,2013-08-04 15:47:00,
2013-08-04 08:52:00,66.4,50.7,29.97,SSE,165,0.0,0.0,57,0.00,,,0.00,VWS V14.01,2013-08-04 15:52:00,
2013-08-04 08:57:00,66.4,50.7,29.97,SSE,165,0.0,0.0,57,0.00,,,0.00,VWS V14.01,2013-08-04 15:57:00,
2013-08-04 09:03:00,66.7,51.0,29.97,SSE,166,0.0,0.0,57,0.00,,,0.00,VWS V14.01,2013-08-04 16:03:00,
2013-08-04 09:09:00,66.9,50.2,29.97,SSE,166,0.0,0.0,55,0.00,,,0.00,VWS V14.01,2013-08-04 16:09:00,
2013-08-04 09:14:00,67.1,49.9,29.97,SSE,166,0.0,0.0,54,0.00,,,0.00,VWS V14.01,2013-08-04 16:14:00,
2013-08-04 09:20:00,67.4,50.2,29.97,South,169,0.0,0.0,54,0.00,,,0.00,VWS V14.01,2013-08-04 16:20:00,
2013-08-04 09:26:00,67.6,48.9,29.97,NE,54,0.0,0.0,51,0.00,,,0.00,VWS V14.01,2013-08-04 16:26:00,
2013-08-04 09:31:00,68.0,48.7,29.97,NE,42,0.0,3.6,50,0.00,,,0.00,VWS V14.01,2013-08-04 16:31:00,
2013-08-04 09:37:00,68.5,48.6,29.97,NE,35,0.0,2.2,49,0.00,,,0.00,VWS V14.01,2013-08-04 16:37:00,
2013-08-04 09:43:00,68.7,47.7,29.97,NE,35,2.7,2.7,47,0.00,,,0.00,VWS V14.01,2013-08-04 16:43:00,
2013-08-04 09:47:00,69.2,48.2,29.97,NE,37,0.0,0.0,47,0.00,,,0.00,VWS V14.01,2013-08-04 16:47:00,
2013-08-04 09:53:00,69.6,47.9,29.97,NE,37,0.0,0.0,46,0.00,,,0.00,VWS V14.01,2013-08-04 16:53:00,
2013-08-04 09:59:00,69.4,46.6,29.97,WSW,239,4.9,4.9,44,0.00,,,0.00,VWS V14.01,2013-08-04 16:59:00,
2013-08-04 10:04:00,69.8,47.5,29.97,SSE,153,3.1,3.1,45,0.00,,,0.00,VWS V14.01,2013-08-04 17:04:00,
2013-08-04 10:09:00,69.6,47.3,29.97,SW,214,2.7,5.8,45,0.00,,,0.00,VWS V14.01,2013-08-04 17:09:00,
2013-08-04 10:14:00,69.8,48.1,29.97,SW,214,2.2,4.0,46,0.00,,,0.00,VWS V14.01,2013-08-04 17:14:00,
2013-08-04 10:18:00,70.1,48.4,29.97,SW,219,2.7,3.6,46,0.00,,,0.00,VWS V14.01,2013-08-04 17:18:00,
2013-08-04 10:25:00,70.1,47.2,29.97,WSW,238,5.4,5.4,44,0.00,,,0.00,VWS V14.01,2013-08-04 17:25:00,
2013-08-04 10:30:00,70.7,47.1,29.97,WNW,288,2.2,4.0,43,0.00,,,0.00,VWS V14.01,2013-08-04 17:30:00,
2013-08-04 10:35:00,70.7,47.1,29.97,WSW,250,2.7,2.7,43,0.00,,,0.00,VWS V14.01,2013-08-04 17:35:00,
2013-08-04 10:42:00,71.2,47.0,29.97,North,6,2.2,2.7,42,0.00,,,0.00,VWS V14.01,2013-08-04 17:42:00,
2013-08-04 10:48:00,72.1,47.2,29.97,NNW,329,3.1,3.6,41,0.00,,,0.00,VWS V14.01,2013-08-04 17:48:00,
2013-08-04 10:54:00,72.3,46.0,29.97,SSW,211,0.0,3.1,39,0.00,,,0.00,VWS V14.01,2013-08-04 17:54:00,
2013-08-04 10:58:00,72.1,45.8,29.97,SW,216,2.7,4.9,39,0.00,,,0.00,VWS V14.01,2013-08-04 17:58:00,
2013-08-04 11:05:00,72.5,45.5,29.97,WSW,247,2.2,3.6,38,0.00,,,0.00,VWS V14.01,2013-08-04 18:05:00,
2013-08-04 11:10:00,74.5,47.2,29.97,SSW,208,0.0,0.0,38,0.00,,,0.00,VWS V14.01,2013-08-04 18:10:00,
2013-08-04 11:15:00,75.7,44.6,29.97,SE,127,0.0,3.6,33,0.00,,,0.00,VWS V14.01,2013-08-04 18:15:00,
2013-08-04 11:21:00,76.4,44.4,29.94,SSW,193,0.0,4.0,32,0.00,,,0.00,VWS V14.01,2013-08-04 18:21:00,
2013-08-04 11:26:00,76.6,44.6,29.94,WSW,242,4.0,5.8,32,0.00,,,0.00,VWS V14.01,2013-08-04 18:26:00,
2013-08-04 11:33:00,75.7,43.8,29.94,WSW,237,2.2,2.2,32,0.00,,,0.00,VWS V14.01,2013-08-04 18:33:00,
2013-08-04 11:38:00,77.0,44.1,29.94,SSE,163,3.6,3.6,31,0.00,,,0.00,VWS V14.01,2013-08-04 18:38:00,
2013-08-04 11:43:00,77.3,44.4,29.94,WSW,244,6.3,7.6,31,0.00,,,0.00,VWS V14.01,2013-08-04 18:43:00,
2013-08-04 11:44:00,77.3,44.4,29.94,South,184,4.9,6.3,31,0.00,,,0.00,VWS V14.01,2013-08-04 18:44:00,
2013-08-04 11:48:00,77.5,44.5,29.94,SSW,198,3.6,6.3,31,0.00,,,0.00,VWS V14.01,2013-08-04 18:48:00,
2013-08-04 11:54:00,78.1,45.0,29.94,SSE,156,3.6,8.1,31,0.00,,,0.00,VWS V14.01,2013-08-04 18:54:00,
2013-08-04 12:00:00,78.1,44.1,29.94,SW,231,3.6,4.0,30,0.00,,,0.00,VWS V14.01,2013-08-04 19:00:00,
2013-08-04 12:05:00,77.5,44.5,29.94,South,185,5.8,8.3,31,0.00,,,0.00,VWS V14.01,2013-08-04 19:05:00,
2013-08-04 12:11:00,77.0,44.1,29.94,SSW,202,3.6,4.9,31,0.00,,,0.00,VWS V14.01,2013-08-04 19:11:00,
2013-08-04 12:17:00,76.6,43.8,29.94,WSW,248,5.4,7.6,31,0.00,,,0.00,VWS V14.01,2013-08-04 19:17:00,
2013-08-04 12:22:00,77.7,44.7,29.94,SSW,200,5.4,5.8,31,0.00,,,0.00,VWS V14.01,2013-08-04 19:22:00,
2013-08-04 12:27:00,78.1,44.1,29.94,South,186,4.0,9.2,30,0.00,,,0.00,VWS V14.01,2013-08-04 19:27:00,
2013-08-04 12:32:00,78.2,44.3,29.94,SSW,195,7.6,7.6,30,0.00,,,0.00,VWS V14.01,2013-08-04 19:32:00,
2013-08-04 12:37:00,78.2,44.3,29.94,South,184,5.8,5.8,30,0.00,,,0.00,VWS V14.01,2013-08-04 19:37:00,
2013-08-04 12:43:00,77.9,44.0,29.94,South,191,4.0,6.3,30,0.00,,,0.00,VWS V14.01,2013-08-04 19:43:00,
2013-08-04 12:48:00,76.8,43.9,29.94,South,179,5.8,8.3,31,0.00,,,0.00,VWS V14.01,2013-08-04 19:48:00,
2013-08-04 12:54:00,78.1,44.1,29.94,SSE,157,7.2,8.1,30,0.00,,,0.00,VWS V14.01,2013-08-04 19:54:00,
2013-08-04 13:00:00,77.3,43.5,29.94,SSW,213,5.4,6.3,30,0.00,,,0.00,VWS V14.01,2013-08-04 20:00:00,
2013-08-04 13:05:00,77.9,44.0,29.94,NE,41,4.0,8.1,30,0.00,,,0.00,VWS V14.01,2013-08-04 20:05:00,
2013-08-04 13:11:00,77.9,44.0,29.94,SW,226,2.7,6.3,30,0.00,,,0.00,VWS V14.01,2013-08-04 20:11:00,
2013-08-04 13:17:00,77.9,44.0,29.94,South,185,5.4,6.3,30,0.00,,,0.00,VWS V14.01,2013-08-04 20:17:00,
2013-08-04 13:22:00,77.7,43.8,29.94,SE,140,3.6,3.6,30,0.00,,,0.00,VWS V14.01,2013-08-04 20:22:00,
2013-08-04 13:27:00,77.7,43.8,29.94,SSW,202,4.0,8.7,30,0.00,,,0.00,VWS V14.01,2013-08-04 20:27:00,
2013-08-04 13:33:00,77.7,43.8,29.94,South,177,3.6,7.6,30,0.00,,,0.00,VWS V14.01,2013-08-04 20:33:00,
2013-08-04 13:39:00,78.1,44.1,29.94,SSE,155,4.9,4.9,30,0.00,,,0.00,VWS V14.01,2013-08-04 20:39:00,
2013-08-04 13:42:00,77.9,44.0,29.94,SW,234,4.0,6.3,30,0.00,,,0.00,VWS V14.01,2013-08-04 20:42:00,
2013-08-04 13:48:00,77.7,43.8,29.94,SSE,159,5.4,5.4,30,0.00,,,0.00,VWS V14.01,2013-08-04 20:48:00,
2013-08-04 13:53:00,78.8,43.9,29.94,South,185,4.9,8.1,29,0.00,,,0.00,VWS V14.01,2013-08-04 20:53:00,
2013-08-04 13:59:00,78.6,42.8,29.94,SE,144,4.0,6.3,28,0.00,,,0.00,VWS V14.01,2013-08-04 20:59:00,
2013-08-04 14:04:00,79.5,43.6,29.94,SW,217,5.8,8.1,28,0.00,,,0.00,VWS V14.01,2013-08-04 21:04:00,
2013-08-04 14:07:00,79.5,42.6,29.94,SSW,197,7.6,8.3,27,0.00,,,0.00,VWS V14.01,2013-08-04 21:07:00,
2013-08-04 14:13:00,79.3,42.5,29.94,SSW,200,5.4,7.6,27,0.00,,,0.00,VWS V14.01,2013-08-04 21:13:00,
2013-08-04 14:18:00,79.1,42.3,29.91,SW,223,5.4,7.6,27,0.00,,,0.00,VWS V14.01,2013-08-04 21:18:00,
2013-08-04 14:23:00,79.1,42.3,29.91,SSW,205,5.4,5.8,27,0.00,,,0.00,VWS V14.01,2013-08-04 21:23:00,
2013-08-04 14:29:00,79.5,42.6,29.91,SE,132,5.8,5.8,27,0.00,,,0.00,VWS V14.01,2013-08-04 21:29:00,
2013-08-04 14:35:00,79.7,41.8,29.91,SSW,209,4.0,4.0,26,0.00,,,0.00,VWS V14.01,2013-08-04 21:35:00,
2013-08-04 14:40:00,80.0,41.1,29.91,South,186,2.7,4.9,25,0.00,,CLR,0.00,VWS V14.01,2013-08-04 21:40:00,
2013-08-04 14:45:00,80.4,41.4,29.91,SSW,200,5.8,5.8,25,0.00,,CLR,0.00,VWS V14.01,2013-08-04 21:45:00,
2013-08-04 14:49:00,79.9,42.0,29.91,South,189,5.8,8.1,26,0.00,,CLR,0.00,VWS V14.01,2013-08-04 21:49:00,
2013-08-04 14:55:00,79.9,42.0,29.91,WSW,240,4.9,6.3,26,0.00,,CLR,0.00,VWS V14.01,2013-08-04 21:55:00,
2013-08-04 14:59:00,80.9,40.8,29.91,South,184,5.8,6.3,24,0.00,,CLR,0.00,VWS V14.01,2013-08-04 21:59:00,
2013-08-04 15:06:00,80.8,39.5,29.91,South,178,7.6,8.7,23,0.00,,CLR,0.00,VWS V14.01,2013-08-04 22:06:00,
2013-08-04 15:11:00,80.4,40.3,29.91,SSW,200,5.8,6.3,24,0.00,,CLR,0.00,VWS V14.01,2013-08-04 22:11:00,
2013-08-04 15:16:00,80.6,40.5,29.91,West,265,5.8,5.8,24,0.00,,CLR,0.00,VWS V14.01,2013-08-04 22:16:00,
2013-08-04 15:20:00,80.6,41.5,29.91,SSW,208,2.2,4.0,25,0.00,,CLR,0.00,VWS V14.01,2013-08-04 22:20:00,
2013-08-04 15:27:00,81.1,41.0,29.91,SSW,193,6.3,6.3,24,0.00,,CLR,0.00,VWS V14.01,2013-08-04 22:27:00,
2013-08-04 15:32:00,80.9,39.7,29.91,SSW,197,3.6,5.4,23,0.00,,CLR,0.00,VWS V14.01,2013-08-04 22:32:00,
2013-08-04 15:37:00,81.1,39.8,29.91,SE,139,6.3,6.3,23,0.00,,CLR,0.00,VWS V14.01,2013-08-04 22:37:00,
2013-08-04 15:42:00,81.5,40.2,29.91,SSE,166,5.8,6.3,23,0.00,,CLR,0.00,VWS V14.01,2013-08-04 22:42:00,
2013-08-04 15:48:00,82.6,39.9,29.88,SSW,205,3.6,3.6,22,0.00,,CLR,0.00,VWS V14.01,2013-08-04 22:48:00,
2013-08-04 15:53:00,82.4,37.3,29.88,West,267,5.4,5.4,20,0.00,,CLR,0.00,VWS V14.01,2013-08-04 22:53:00,
2013-08-04 15:58:00,80.9,37.4,29.88,West,266,5.8,7.6,21,0.00,,CLR,0.00,VWS V14.01,2013-08-04 22:58:00,
2013-08-04 16:04:00,80.8,37.2,29.88,West,272,8.1,8.1,21,0.00,,CLR,0.00,VWS V14.01,2013-08-04 23:04:00,
2013-08-04 16:10:00,81.5,37.8,29.88,NW,320,4.0,4.9,21,0.00,,CLR,0.00,VWS V14.01,2013-08-04 23:10:00,
2013-08-04 16:14:00,80.4,38.1,29.88,NNW,338,5.4,5.8,22,0.00,,CLR,0.00,VWS V14.01,2013-08-04 23:14:00,
2013-08-04 16:19:00,80.9,38.6,29.88,WSW,255,5.8,5.8,22,0.00,,CLR,0.00,VWS V14.01,2013-08-04 23:19:00,
2013-08-04 16:25:00,79.5,37.4,29.88,WSW,247,5.8,8.7,22,0.00,,CLR,0.00,VWS V14.01,2013-08-04 23:25:00,
2013-08-04 16:30:00,79.7,39.7,29.88,NW,310,5.8,8.3,24,0.00,,CLR,0.00,VWS V14.01,2013-08-04 23:30:00,
2013-08-04 16:35:00,78.1,38.4,29.88,West,259,5.8,5.8,24,0.00,,CLR,0.00,VWS V14.01,2013-08-04 23:35:00,
2013-08-04 16:40:00,78.6,38.8,29.88,WNW,289,8.1,8.7,24,0.00,,CLR,0.00,VWS V14.01,2013-08-04 23:40:00,
2013-08-04 16:45:00,78.2,40.6,29.88,WSW,252,4.9,7.2,26,0.00,,CLR,0.00,VWS V14.01,2013-08-04 23:45:00,
2013-08-04 16:51:00,79.0,40.2,29.88,West,272,7.6,7.6,25,0.00,,CLR,0.00,VWS V14.01,2013-08-04 23:51:00,
2013-08-04 16:57:00,78.8,40.0,29.88,WNW,283,4.0,8.1,25,0.00,,CLR,0.00,VWS V14.01,2013-08-04 23:57:00,
2013-08-04 17:03:00,78.2,41.5,29.88,NW,311,5.4,8.7,27,0.00,,CLR,0.00,VWS V14.01,2013-08-05 00:03:00,
2013-08-04 17:08:00,77.7,39.1,29.88,WNW,297,7.6,8.7,25,0.00,,CLR,0.00,VWS V14.01,2013-08-05 00:08:00,
2013-08-04 17:14:00,77.5,40.0,29.88,NW,314,4.0,7.6,26,0.00,,CLR,0.00,VWS V14.01,2013-08-05 00:14:00,
2013-08-04 17:20:00,76.6,39.2,29.88,WNW,283,5.4,7.6,26,0.00,,CLR,0.00,VWS V14.01,2013-08-05 00:20:00,
2013-08-04 17:26:00,76.4,41.0,29.88,NNW,338,5.8,6.7,28,0.00,,CLR,0.00,VWS V14.01,2013-08-05 00:26:00,
2013-08-04 17:30:00,76.6,40.2,29.88,West,276,5.8,6.7,27,0.00,,CLR,0.00,VWS V14.01,2013-08-05 00:30:00,
2013-08-04 17:36:00,76.3,39.9,29.88,West,268,4.0,6.3,27,0.00,,CLR,0.00,VWS V14.01,2013-08-05 00:36:00,
2013-08-04 17:41:00,75.5,42.0,29.88,West,265,4.0,8.7,30,0.00,,CLR,0.00,VWS V14.01,2013-08-05 00:41:00,
2013-08-04 17:47:00,75.2,42.5,29.88,West,263,4.0,7.6,31,0.00,,CLR,0.00,VWS V14.01,2013-08-05 00:47:00,
2013-08-04 17:52:00,75.4,41.8,29.88,NW,310,5.4,8.1,30,0.00,,CLR,0.00,VWS V14.01,2013-08-05 00:52:00,
2013-08-04 17:58:00,75.9,42.3,29.88,NW,311,4.9,9.6,30,0.00,,CLR,0.00,VWS V14.01,2013-08-05 00:58:00,
2013-08-04 18:03:00,75.2,41.7,29.85,West,276,4.0,8.1,30,0.00,,CLR,0.00,VWS V14.01,2013-08-05 01:03:00,
2013-08-04 18:09:00,74.5,41.9,29.85,NW,306,7.6,7.6,31,0.00,,CLR,0.00,VWS V14.01,2013-08-05 01:09:00,
2013-08-04 18:15:00,74.6,42.0,29.85,WNW,291,3.6,5.8,31,0.00,,CLR,0.00,VWS V14.01,2013-08-05 01:15:00,
2013-08-04 18:21:00,74.3,41.7,29.85,WNW,299,5.4,5.4,31,0.00,,CLR,0.00,VWS V14.01,2013-08-05 01:21:00,
2013-08-04 18:26:00,73.7,41.2,29.85,West,269,5.4,5.8,31,0.00,,CLR,0.00,VWS V14.01,2013-08-05 01:26:00,
2013-08-04 18:31:00,73.7,42.1,29.88,West,279,6.7,6.7,32,0.00,,CLR,0.00,VWS V14.01,2013-08-05 01:31:00,
2013-08-04 18:38:00,73.2,42.4,29.88,WNW,297,7.2,8.3,33,0.00,,CLR,0.00,VWS V14.01,2013-08-05 01:38:00,
2013-08-04 18:43:00,71.9,41.3,29.88,NW,315,5.8,8.7,33,0.00,,CLR,0.00,VWS V14.01,2013-08-05 01:43:00,
2013-08-04 18:49:00,72.1,42.2,29.88,NW,324,5.8,5.8,34,0.00,,CLR,0.00,VWS V14.01,2013-08-05 01:49:00,
2013-08-04 18:54:00,72.1,42.2,29.88,North,353,5.8,6.3,34,0.00,,CLR,0.00,VWS V14.01,2013-08-05 01:54:00,
2013-08-04 18:59:00,71.6,42.5,29.88,NW,305,6.3,6.3,35,0.00,,CLR,0.00,VWS V14.01,2013-08-05 01:59:00,
2013-08-04 19:06:00,71.2,42.9,29.88,NW,307,3.1,5.8,36,0.00,,CLR,0.00,VWS V14.01,2013-08-05 02:06:00,
2013-08-04 19:10:00,71.0,42.8,29.88,NNW,338,6.3,7.2,36,0.00,,CLR,0.00,VWS V14.01,2013-08-05 02:10:00,
2013-08-04 19:17:00,70.9,43.3,29.88,WNW,285,7.6,7.6,37,0.00,,CLR,0.00,VWS V14.01,2013-08-05 02:17:00,
2013-08-04 19:24:00,70.3,42.8,29.88,West,281,6.3,8.3,37,0.00,,CLR,0.00,VWS V14.01,2013-08-05 02:24:00,
2013-08-04 19:29:00,69.4,44.1,29.88,West,279,5.8,5.8,40,0.00,,CLR,0.00,VWS V14.01,2013-08-05 02:29:00,
2013-08-04 19:35:00,69.2,44.6,29.88,NW,317,4.9,5.4,41,0.00,,CLR,0.00,VWS V14.01,2013-08-05 02:35:00,
2013-08-04 19:40:00,68.3,45.0,29.88,WNW,299,7.6,7.6,43,0.00,,CLR,0.00,VWS V14.01,2013-08-05 02:40:00,
2013-08-04 19:46:00,67.8,45.1,29.88,NW,305,4.0,8.3,44,0.00,,CLR,0.00,VWS V14.01,2013-08-05 02:46:00,
2013-08-04 19:51:00,67.3,45.8,29.88,WNW,292,3.1,6.3,46,0.00,,CLR,0.00,VWS V14.01,2013-08-05 02:51:00,
2013-08-04 19:55:00,67.1,45.6,29.88,WNW,282,7.6,7.6,46,0.00,,CLR,0.00,VWS V14.01,2013-08-05 02:55:00,
2013-08-04 20:01:00,67.1,46.2,29.88,West,275,2.7,3.6,47,0.00,,CLR,0.00,VWS V14.01,2013-08-05 03:01:00,
2013-08-04 20:07:00,66.5,46.3,29.88,WNW,289,3.1,5.4,48,0.00,,CLR,0.00,VWS V14.01,2013-08-05 03:07:00,
2013-08-04 20:12:00,66.4,46.6,29.88,North,0,3.1,4.9,49,0.00,,CLR,0.00,VWS V14.01,2013-08-05 03:12:00,
2013-08-04 20:18:00,66.0,46.3,29.88,NNW,328,5.8,6.3,49,0.00,,CLR,0.00,VWS V14.01,2013-08-05 03:18:00,
2013-08-04 20:24:00,65.8,47.2,29.88,NW,312,4.9,5.8,51,0.00,,CLR,0.00,VWS V14.01,2013-08-05 03:24:00,
2013-08-04 20:30:00,65.6,47.6,29.88,NW,314,4.9,8.1,52,0.00,,CLR,0.00,VWS V14.01,2013-08-05 03:30:00,
2013-08-04 20:34:00,65.5,47.9,29.91,West,260,5.8,5.8,53,0.00,,CLR,0.00,VWS V14.01,2013-08-05 03:34:00,
2013-08-04 20:41:00,65.1,48.5,29.91,WNW,291,5.4,6.3,55,0.00,,CLR,0.00,VWS V14.01,2013-08-05 03:41:00,
2013-08-04 20:46:00,64.9,49.3,29.91,WNW,303,4.0,5.8,57,0.00,,CLR,0.00,VWS V14.01,2013-08-05 03:46:00,
2013-08-04 20:52:00,64.7,49.6,29.91,NNW,331,3.1,6.3,58,0.00,,CLR,0.00,VWS V14.01,2013-08-05 03:52:00,
2013-08-04 20:57:00,64.7,49.6,29.91,WNW,293,5.4,7.6,58,0.00,,CLR,0.00,VWS V14.01,2013-08-05 03:57:00,
2013-08-04 21:02:00,64.7,49.6,29.91,NW,306,2.7,3.1,58,0.00,,CLR,0.00,VWS V14.01,2013-08-05 04:02:00,
2013-08-04 21:03:00,64.7,50.1,29.91,WNW,283,4.0,4.0,59,0.00,,CLR,0.00,VWS V14.01,2013-08-05 04:03:00,
2013-08-04 21:04:00,64.6,49.9,29.91,WSW,253,2.7,4.9,59,0.00,,CLR,0.00,VWS V14.01,2013-08-05 04:04:00,
2013-08-04 21:05:00,64.6,49.9,29.91,West,279,2.2,4.0,59,0.00,,CLR,0.00,VWS V14.01,2013-08-05 04:05:00,
2013-08-04 21:09:00,64.6,50.4,29.91,NNW,328,3.1,3.1,60,0.00,,CLR,0.00,VWS V14.01,2013-08-05 04:09:00,
2013-08-04 21:16:00,64.4,50.2,29.91,West,268,4.0,4.0,60,0.00,,CLR,0.00,VWS V14.01,2013-08-05 04:16:00,
2013-08-04 21:21:00,64.4,50.7,29.91,NW,312,3.6,6.3,61,0.00,,CLR,0.00,VWS V14.01,2013-08-05 04:21:00,
2013-08-04 21:26:00,64.2,50.9,29.91,WNW,289,2.7,3.6,62,0.00,,CLR,0.00,VWS V14.01,2013-08-05 04:26:00,
2013-08-04 21:32:00,64.0,51.2,29.91,NW,317,2.7,6.3,63,0.00,,CLR,0.00,VWS V14.01,2013-08-05 04:32:00,
2013-08-04 21:37:00,64.0,51.2,29.91,West,279,4.9,4.9,63,0.00,,CLR,0.00,VWS V14.01,2013-08-05 04:37:00,
2013-08-04 21:43:00,63.8,51.4,29.91,West,281,0.0,3.1,64,0.00,,CLR,0.00,VWS V14.01,2013-08-05 04:43:00,
2013-08-04 21:48:00,63.8,51.4,29.91,WNW,282,5.4,6.3,64,0.00,,CLR,0.00,VWS V14.01,2013-08-05 04:48:00,
2013-08-04 21:54:00,63.7,51.7,29.91,NW,315,2.7,2.7,65,0.00,,CLR,0.00,VWS V14.01,2013-08-05 04:54:00,
2013-08-04 21:59:00,63.7,51.7,29.91,WNW,289,4.0,4.9,65,0.00,,CLR,0.00,VWS V14.01,2013-08-05 04:59:00,
2013-08-04 22:05:00,63.5,51.9,29.91,WNW,282,2.2,4.0,66,0.00,,CLR,0.00,VWS V14.01,2013-08-05 05:05:00,
2013-08-04 22:10:00,63.5,52.3,29.91,West,280,5.4,6.3,67,0.00,,CLR,0.00,VWS V14.01,2013-08-05 05:10:00,
2013-08-04 22:15:00,63.5,52.3,29.91,WNW,284,3.1,4.9,67,0.00,,CLR,0.00,VWS V14.01,2013-08-05 05:15:00,
2013-08-04 22:20:00,63.5,52.7,29.91,WNW,300,2.7,4.9,68,0.00,,CLR,0.00,VWS V14.01,2013-08-05 05:20:00,
2013-08-04 22:26:00,63.3,52.6,29.91,WNW,302,2.2,3.1,68,0.00,,CLR,0.00,VWS V14.01,2013-08-05 05:26:00,
2013-08-04 22:31:00,63.3,52.6,29.91,NW,315,2.7,3.6,68,0.00,,CLR,0.00,VWS V14.01,2013-08-05 05:31:00,
2013-08-04 22:37:00,63.1,52.4,29.91,NW,318,0.0,0.0,68,0.00,,CLR,0.00,VWS V14.01,2013-08-05 05:37:00,
2013-08-04 22:43:00,63.1,52.4,29.91,NW,319,3.1,4.9,68,0.00,,CLR,0.00,VWS V14.01,2013-08-05 05:43:00,
2013-08-04 22:48:00,62.9,52.2,29.91,NW,310,0.0,0.0,68,0.00,,CLR,0.00,VWS V14.01,2013-08-05 05:48:00,
2013-08-04 22:54:00,62.9,52.2,29.91,North,353,0.0,0.0,68,0.00,,CLR,0.00,VWS V14.01,2013-08-05 05:54:00,
2013-08-04 22:59:00,62.8,52.1,29.91,NW,314,0.0,2.7,68,0.00,,CLR,0.00,VWS V14.01,2013-08-05 05:59:00,
2013-08-04 23:05:00,62.8,52.1,29.94,NW,322,3.6,4.0,68,0.00,,CLR,0.00,VWS V14.01,2013-08-05 06:05:00,
2013-08-04 23:10:00,62.6,51.9,29.94,WNW,289,2.7,3.1,68,0.00,,CLR,0.00,VWS V14.01,2013-08-05 06:10:00,
2013-08-04 23:16:00,62.6,52.3,29.94,West,263,2.2,3.1,69,0.00,,CLR,0.00,VWS V14.01,2013-08-05 06:16:00,
2013-08-04 23:22:00,62.4,52.1,29.94,NNW,330,3.1,3.6,69,0.00,,CLR,0.00,VWS V14.01,2013-08-05 06:22:00,
2013-08-04 23:27:00,62.4,52.1,29.94,NW,304,2.7,4.0,69,0.00,,CLR,0.00,VWS V14.01,2013-08-05 06:27:00,
2013-08-04 23:32:00,62.2,52.3,29.94,WNW,298,0.0,0.0,70,0.00,,CLR,0.00,VWS V14.01,2013-08-05 06:32:00,
2013-08-04 23:39:00,62.2,52.3,29.94,NW,305,3.6,4.0,70,0.00,,CLR,0.00,VWS V14.01,2013-08-05 06:39:00,
2013-08-04 23:44:00,62.2,52.3,29.94,NNW,327,0.0,2.2,70,0.00,,CLR,0.00,VWS V14.01,2013-08-05 06:44:00,
2013-08-04 23:50:00,62.2,52.7,29.94,WNW,303,4.0,4.9,71,0.00,,CLR,0.00,VWS V14.01,2013-08-05 06:50:00,
2013-08-04 23:55:00,62.0,52.5,29.94,WNW,289,3.6,3.6,71,0.00,,CLR,0.00,VWS V14.01,2013-08-05 06:55:00,